createdAt,value
2023-02-06T00:00:57.414Z,102497.41
2023-02-06T00:03:40.795Z,102484.13
2023-02-06T00:06:08.995Z,102481.78
2023-02-06T00:08:36.945Z,102474.28
2023-02-06T00:11:08.256Z,102469.03
2023-02-06T00:13:36.483Z,102466.78
2023-02-06T00:16:05.262Z,102468.13
2023-02-06T00:18:32.956Z,102469.06
2023-02-06T00:21:00.936Z,102456.78
2023-02-06T00:23:28.626Z,102466.53
2023-02-06T00:25:56.546Z,102466.00
2023-02-06T00:28:25.705Z,102475.41
2023-02-06T00:30:56.556Z,102469.38
2023-02-06T00:33:24.292Z,102479.88
2023-02-06T00:35:52.563Z,102477.34
2023-02-06T00:38:20.097Z,102474.44
2023-02-06T00:40:48.204Z,102484.84
2023-02-06T00:43:15.558Z,102496.44
2023-02-06T00:45:44.968Z,102490.50
2023-02-06T00:48:12.395Z,102494.03
2023-02-06T00:50:40.358Z,102497.78
2023-02-06T00:53:09.925Z,102486.44
2023-02-06T00:55:37.946Z,102489.94
2023-02-06T00:58:05.606Z,102499.47
2023-02-06T01:00:33.471Z,102499.28
2023-02-06T01:03:02.652Z,102494.75
2023-02-06T01:05:30.714Z,102489.38
2023-02-06T01:07:58.833Z,102477.44
2023-02-06T01:10:27.118Z,102473.84
2023-02-06T01:12:54.748Z,102482.97
2023-02-06T01:15:22.851Z,102469.47
2023-02-06T01:17:50.425Z,102470.75
2023-02-06T01:20:20.191Z,102472.94
2023-02-06T01:22:47.787Z,102473.63
2023-02-06T01:25:15.894Z,102458.38
2023-02-06T01:27:43.586Z,102455.75
2023-02-06T01:30:12.685Z,102454.66
2023-02-06T01:32:41.818Z,102454.44
2023-02-06T01:35:11.645Z,102459.72
2023-02-06T01:37:41.299Z,102456.03
2023-02-06T01:40:14.237Z,102459.47
2023-02-06T01:42:42.278Z,102464.53
2023-02-06T01:45:44.840Z,102460.72
2023-02-06T01:48:17.542Z,102452.84
2023-02-06T01:50:49.877Z,102457.44
2023-02-06T01:53:21.018Z,102453.09
2023-02-06T01:55:52.847Z,102441.88
2023-02-06T01:58:26.618Z,102440.38
2023-02-06T02:00:55.644Z,102449.94
2023-02-06T02:03:23.445Z,102466.69
2023-02-06T02:05:57.377Z,102471.44
2023-02-06T02:08:33.030Z,102470.63
2023-02-06T02:11:03.446Z,102474.06
2023-02-06T02:13:31.071Z,102472.88
2023-02-06T02:16:02.736Z,102458.75
2023-02-06T02:18:50.638Z,102446.97
2023-02-06T02:21:56.997Z,102456.50
2023-02-06T02:24:42.285Z,102470.59
2023-02-06T02:27:25.915Z,102464.56
2023-02-06T02:30:21.196Z,102440.75
2023-02-06T02:33:31.138Z,102441.38
2023-02-06T02:36:05.835Z,102448.03
2023-02-06T02:38:44.268Z,102439.59
2023-02-06T02:41:19.047Z,102429.00
2023-02-06T02:46:26.750Z,102421.88
2023-02-06T02:48:59.599Z,102423.75
2023-02-06T02:51:29.240Z,102417.72
2023-02-06T02:53:57.741Z,102416.31
2023-02-06T02:56:26.921Z,102400.06
2023-02-06T02:58:58.604Z,102391.41
2023-02-06T03:01:30.152Z,102392.50
2023-02-06T03:04:03.490Z,102387.19
2023-02-06T03:06:59.960Z,102389.78
2023-02-06T03:09:47.068Z,102390.31
2023-02-06T03:12:21.122Z,102378.00
2023-02-06T03:14:54.457Z,102374.59
2023-02-06T03:17:31.224Z,102381.66
2023-02-06T03:20:02.518Z,102378.19
2023-02-06T03:22:33.099Z,102374.94
2023-02-06T03:25:03.001Z,102377.78
2023-02-06T03:27:35.950Z,102375.03
2023-02-06T03:30:06.099Z,102373.22
2023-02-06T03:32:38.150Z,102388.44
2023-02-06T03:35:12.255Z,102397.88
2023-02-06T03:37:41.342Z,102388.28
2023-02-06T03:40:10.327Z,102392.56
2023-02-06T03:42:41.496Z,102394.72
2023-02-06T03:45:15.643Z,102400.13
2023-02-06T03:47:46.273Z,102391.91
2023-02-06T03:50:15.608Z,102389.84
2023-02-06T03:52:48.964Z,102392.41
2023-02-06T03:55:19.201Z,102399.19
2023-02-06T03:57:51.705Z,102389.94
2023-02-06T04:00:20.541Z,102385.78
2023-02-06T04:02:50.089Z,102384.22
2023-02-06T04:05:19.771Z,102382.19
2023-02-06T04:07:48.946Z,102384.91
2023-02-06T04:10:16.994Z,102392.09
2023-02-06T04:12:44.553Z,102396.00
2023-02-06T04:15:12.560Z,102391.69
2023-02-06T04:17:57.655Z,102392.97
2023-02-06T04:20:27.799Z,102379.84
2023-02-06T04:22:56.996Z,102375.25
2023-02-06T04:25:32.877Z,102375.47
2023-02-06T04:28:00.515Z,102377.41
2023-02-06T04:30:28.866Z,102372.88
2023-02-06T04:32:56.790Z,102371.03
2023-02-06T04:35:24.751Z,102378.13
2023-02-06T04:37:52.569Z,102375.63
2023-02-06T04:40:22.433Z,102373.31
2023-02-06T04:42:49.984Z,102370.03
2023-02-06T04:45:17.925Z,102374.53
2023-02-06T04:47:45.539Z,102381.41
2023-02-06T04:50:13.341Z,102375.56
2023-02-06T04:52:41.289Z,102374.56
2023-02-06T04:55:09.548Z,102379.56
2023-02-06T04:57:38.568Z,102380.09
2023-02-06T05:00:07.774Z,102378.25
2023-02-06T05:02:35.407Z,102388.25
2023-02-06T05:05:04.398Z,102382.97
2023-02-06T05:07:31.978Z,102380.81
2023-02-06T05:09:59.929Z,102383.63
2023-02-06T05:12:27.846Z,102395.28
2023-02-06T05:17:25.597Z,102381.66
2023-02-06T05:19:53.484Z,102376.91
2023-02-06T05:22:21.188Z,102377.03
2023-02-06T05:24:49.433Z,102373.69
2023-02-06T05:27:16.825Z,102386.09
2023-02-06T05:29:45.020Z,102376.63
2023-02-06T05:32:14.033Z,102374.59
2023-02-06T05:34:41.907Z,102373.47
2023-02-06T05:37:09.447Z,102379.16
2023-02-06T05:39:37.495Z,102369.44
2023-02-06T05:42:05.312Z,102377.19
2023-02-06T05:44:33.358Z,102380.00
2023-02-06T05:47:00.927Z,102390.88
2023-02-06T05:49:30.824Z,102382.03
2023-02-06T05:51:58.345Z,102394.03
2023-02-06T05:54:26.835Z,102392.59
2023-02-06T05:56:54.431Z,102398.56
2023-02-06T05:59:22.561Z,102395.81
2023-02-06T06:01:51.270Z,102403.09
2023-02-06T06:04:19.715Z,102405.34
2023-02-06T06:06:48.862Z,102403.38
2023-02-06T06:09:17.196Z,102411.22
2023-02-06T06:11:44.828Z,102401.06
2023-02-06T06:14:12.839Z,102395.69
2023-02-06T06:16:40.644Z,102381.84
2023-02-06T06:19:09.083Z,102379.47
2023-02-06T06:21:36.748Z,102382.44
2023-02-06T06:24:06.935Z,102385.50
2023-02-06T06:26:34.552Z,102372.69
2023-02-06T06:29:03.414Z,102369.03
2023-02-06T06:31:31.056Z,102361.38
2023-02-06T06:33:59.121Z,102365.53
2023-02-06T06:36:26.884Z,102369.84
2023-02-06T06:38:57.685Z,102363.75
2023-02-06T06:41:27.181Z,102368.59
2023-02-06T06:43:55.771Z,102379.06
2023-02-06T06:46:23.346Z,102385.13
2023-02-06T06:48:51.428Z,102377.09
2023-02-06T06:51:18.966Z,102390.91
2023-02-06T06:53:47.018Z,102389.06
2023-02-06T06:56:15.517Z,102393.66
2023-02-06T06:58:44.903Z,102400.09
2023-02-06T07:01:12.610Z,102405.28
2023-02-06T07:03:40.798Z,102415.47
2023-02-06T07:06:08.689Z,102408.66
2023-02-06T07:08:37.175Z,102404.88
2023-02-06T07:11:05.094Z,102416.19
2023-02-06T07:13:33.238Z,102412.69
2023-02-06T07:16:02.331Z,102402.66
2023-02-06T07:18:30.694Z,102408.50
2023-02-06T07:20:58.351Z,102414.72
2023-02-06T07:23:26.669Z,102423.50
2023-02-06T07:25:54.310Z,102425.59
2023-02-06T07:28:22.207Z,102428.84
2023-02-06T07:30:49.866Z,102425.38
2023-02-06T07:33:19.700Z,102418.72
2023-02-06T07:35:47.595Z,102413.69
2023-02-06T07:38:15.694Z,102406.19
2023-02-06T07:40:45.420Z,102403.06
2023-02-06T07:43:14.375Z,102418.47
2023-02-06T07:45:42.068Z,102419.84
2023-02-06T07:48:10.273Z,102429.28
2023-02-06T07:50:39.456Z,102429.97
2023-02-06T07:53:07.357Z,102430.88
2023-02-06T07:55:36.592Z,102426.47
2023-02-06T07:58:04.984Z,102426.63
2023-02-06T08:00:35.727Z,102424.78
2023-02-06T08:03:04.058Z,102423.47
2023-02-06T08:05:32.389Z,102423.16
2023-02-06T08:08:01.825Z,102425.56
2023-02-06T08:10:29.457Z,102424.41
2023-02-06T08:12:57.495Z,102415.88
2023-02-06T08:15:25.124Z,102425.22
2023-02-06T08:17:53.175Z,102420.63
2023-02-06T08:20:20.792Z,102435.84
2023-02-06T08:22:48.738Z,102430.09
2023-02-06T08:25:18.062Z,102435.59
2023-02-06T08:27:52.617Z,102447.69
2023-02-06T08:30:20.757Z,102448.38
2023-02-06T08:32:49.095Z,102441.09
2023-02-06T08:35:19.776Z,102440.06
2023-02-06T08:37:47.794Z,102441.06
2023-02-06T08:40:15.418Z,102429.72
2023-02-06T08:42:50.084Z,102431.09
2023-02-06T08:45:18.003Z,102429.88
2023-02-06T08:47:46.183Z,102423.38
2023-02-06T08:50:13.792Z,102429.63
2023-02-06T08:52:41.881Z,102429.47
2023-02-06T08:55:09.451Z,102437.81
2023-02-06T08:57:37.898Z,102431.41
2023-02-06T09:00:08.688Z,102428.88
2023-02-06T09:02:39.809Z,102430.88
2023-02-06T09:05:07.874Z,102426.72
2023-02-06T09:07:35.733Z,102436.53
2023-02-06T09:10:03.736Z,102427.16
2023-02-06T09:12:31.791Z,102421.97
2023-02-06T09:14:59.317Z,102423.91
2023-02-06T09:17:28.860Z,102427.78
2023-02-06T09:19:56.465Z,102421.91
2023-02-06T09:22:24.593Z,102426.44
2023-02-06T09:24:52.417Z,102430.75
2023-02-06T09:27:20.472Z,102424.44
2023-02-06T09:29:48.087Z,102432.06
2023-02-06T09:32:16.563Z,102441.59
2023-02-06T09:34:46.911Z,102444.97
2023-02-06T09:37:16.685Z,102440.03
2023-02-06T09:39:44.463Z,102437.19
2023-02-06T09:42:18.797Z,102427.22
2023-02-06T09:44:49.486Z,102427.31
2023-02-06T09:47:23.907Z,102421.44
2023-02-06T09:49:56.045Z,102417.75
2023-02-06T09:52:42.173Z,102424.41
2023-02-06T09:55:18.203Z,102427.41
2023-02-06T09:57:51.544Z,102418.63
2023-02-06T10:00:38.013Z,102415.50
2023-02-06T10:03:26.002Z,102424.44
2023-02-06T10:06:04.828Z,102413.94
2023-02-06T10:08:39.340Z,102418.44
2023-02-06T10:11:13.794Z,102408.88
2023-02-06T10:13:45.605Z,102410.41
2023-02-06T10:16:29.234Z,102416.34
2023-02-06T10:19:02.363Z,102405.28
2023-02-06T10:21:36.692Z,102408.91
2023-02-06T10:24:09.826Z,102415.56
2023-02-06T10:26:40.130Z,102422.94
2023-02-06T10:29:17.748Z,102416.97
2023-02-06T10:31:55.202Z,102415.78
2023-02-06T10:34:41.081Z,102416.84
2023-02-06T10:37:26.122Z,102421.13
2023-02-06T10:40:16.706Z,102431.84
2023-02-06T10:42:55.124Z,102434.91
2023-02-06T10:45:37.015Z,102435.94
2023-02-06T10:48:16.676Z,102428.41
2023-02-06T10:50:48.635Z,102434.00
2023-02-06T10:53:23.208Z,102423.75
2023-02-06T10:55:55.300Z,102425.97
2023-02-06T10:58:27.347Z,102429.44
2023-02-06T11:00:57.806Z,102429.69
2023-02-06T11:03:28.913Z,102423.72
2023-02-06T11:05:58.149Z,102413.09
2023-02-06T11:08:31.958Z,102410.47
2023-02-06T11:11:18.334Z,102406.47
2023-02-06T11:13:48.174Z,102404.69
2023-02-06T11:16:20.912Z,102395.06
2023-02-06T11:18:49.670Z,102407.84
2023-02-06T11:21:49.043Z,102399.97
2023-02-06T11:24:21.798Z,102398.06
2023-02-06T11:26:53.235Z,102397.19
2023-02-06T11:29:22.738Z,102394.50
2023-02-06T11:31:54.095Z,102395.50
2023-02-06T11:34:28.166Z,102399.22
2023-02-06T11:36:59.417Z,102402.25
2023-02-06T11:39:31.092Z,102406.19
2023-02-06T11:42:03.998Z,102407.41
2023-02-06T11:44:39.276Z,102402.38
2023-02-06T11:47:33.689Z,102412.06
2023-02-06T11:50:21.667Z,102410.75
2023-02-06T11:52:50.300Z,102411.81
2023-02-06T11:55:25.544Z,102410.41
2023-02-06T11:58:04.270Z,102415.81
2023-02-06T12:00:32.368Z,102417.91
2023-02-06T12:03:00.763Z,102398.97
2023-02-06T12:05:34.140Z,102407.34
2023-02-06T12:08:05.546Z,102412.34
2023-02-06T12:10:38.877Z,102418.50
2023-02-06T12:13:09.059Z,102420.53
2023-02-06T12:15:47.036Z,102414.81
2023-02-06T12:18:20.717Z,102421.41
2023-02-06T12:20:52.084Z,102420.06
2023-02-06T12:23:26.509Z,102409.66
2023-02-06T12:25:59.083Z,102401.72
2023-02-06T12:28:29.173Z,102401.50
2023-02-06T12:30:59.202Z,102405.16
2023-02-06T12:33:29.459Z,102399.47
2023-02-06T12:36:01.220Z,102400.59
2023-02-06T12:38:39.827Z,102396.34
2023-02-06T12:41:26.326Z,102395.69
2023-02-06T12:43:57.955Z,102393.94
2023-02-06T12:46:27.769Z,102398.28
2023-02-06T12:49:02.007Z,102392.41
2023-02-06T12:51:35.780Z,102385.50
2023-02-06T12:54:13.915Z,102378.69
2023-02-06T12:56:45.960Z,102379.25
2023-02-06T12:59:57.126Z,102378.09
2023-02-06T13:02:31.067Z,102372.06
2023-02-06T13:04:59.556Z,102371.03
2023-02-06T13:07:27.345Z,102374.03
2023-02-06T13:10:01.696Z,102373.56
2023-02-06T13:12:32.376Z,102375.94
2023-02-06T13:15:03.838Z,102382.44
2023-02-06T13:17:34.632Z,102380.28
2023-02-06T13:20:07.349Z,102380.22
2023-02-06T13:22:42.606Z,102380.75
2023-02-06T13:25:53.620Z,102375.78
2023-02-06T13:28:42.294Z,102376.91
2023-02-06T13:31:24.096Z,102378.19
2023-02-06T13:33:55.062Z,102389.28
2023-02-06T13:36:43.000Z,102380.31
2023-02-06T13:39:21.718Z,102391.06
2023-02-06T13:41:52.943Z,102385.44
2023-02-06T13:44:27.960Z,102395.16
2023-02-06T13:47:31.102Z,102396.19
2023-02-06T13:50:58.173Z,102389.53
2023-02-06T13:53:40.984Z,102386.38
2023-02-06T13:56:20.382Z,102402.81
2023-02-06T13:58:50.794Z,102408.66
2023-02-06T14:01:22.267Z,102403.63
2023-02-06T14:03:52.945Z,102415.94
2023-02-06T14:06:36.770Z,102416.56
2023-02-06T14:09:23.349Z,102415.06
2023-02-06T14:12:04.257Z,102420.88
2023-02-06T14:14:48.375Z,102418.91
2023-02-06T14:17:30.459Z,102428.88
2023-02-06T14:20:07.132Z,102419.47
2023-02-06T14:22:42.152Z,102428.72
2023-02-06T14:25:25.695Z,102424.28
2023-02-06T14:28:08.997Z,102426.28
2023-02-06T14:30:44.338Z,102441.78
2023-02-06T14:33:35.850Z,102440.53
2023-02-06T14:36:18.876Z,102448.50
2023-02-06T14:39:24.646Z,102456.00
2023-02-06T14:41:53.753Z,102450.78
2023-02-06T14:44:29.599Z,102452.50
2023-02-06T14:47:34.578Z,102453.84
2023-02-06T14:50:24.589Z,102447.00
2023-02-06T14:52:56.186Z,102453.59
2023-02-06T14:55:35.292Z,102455.00
2023-02-06T14:58:04.152Z,102462.13
2023-02-06T15:00:32.565Z,102466.91
2023-02-06T15:03:06.664Z,102465.44
2023-02-06T15:05:36.292Z,102474.28
2023-02-06T15:08:05.882Z,102476.53
2023-02-06T15:10:36.577Z,102482.50
2023-02-06T15:13:05.098Z,102480.78
2023-02-06T15:15:34.350Z,102489.66
2023-02-06T15:18:04.806Z,102486.06
2023-02-06T15:20:37.939Z,102482.78
2023-02-06T15:23:17.636Z,102480.47
2023-02-06T15:25:59.448Z,102489.59
2023-02-06T15:28:30.108Z,102500.16
2023-02-06T15:31:00.165Z,102492.19
2023-02-06T15:33:30.196Z,102486.28
2023-02-06T15:36:01.072Z,102497.66
2023-02-06T15:38:31.488Z,102486.88
2023-02-06T15:41:02.284Z,102499.50
2023-02-06T15:43:30.767Z,102485.19
2023-02-06T15:46:00.758Z,102492.97
2023-02-06T15:48:33.824Z,102498.69
2023-02-06T15:51:16.704Z,102506.25
2023-02-06T15:53:48.258Z,102502.59
2023-02-06T15:56:26.232Z,102508.28
2023-02-06T15:58:59.307Z,102499.69
2023-02-06T16:01:29.287Z,102507.66
2023-02-06T16:04:08.127Z,102504.81
2023-02-06T16:06:37.012Z,102510.16
2023-02-06T16:09:05.790Z,102509.94
2023-02-06T16:11:36.178Z,102515.00
2023-02-06T16:14:03.927Z,102509.97
2023-02-06T16:16:31.418Z,102508.31
2023-02-06T16:19:00.351Z,102515.28
2023-02-06T16:21:29.843Z,102508.84
2023-02-06T16:24:14.338Z,102511.66
2023-02-06T16:26:44.729Z,102508.47
2023-02-06T16:29:23.393Z,102513.16
2023-02-06T16:31:58.333Z,102508.97
2023-02-06T16:34:36.730Z,102513.69
2023-02-06T16:37:04.596Z,102517.56
2023-02-06T16:39:33.796Z,102521.03
2023-02-06T16:42:01.148Z,102514.78
2023-02-06T16:44:43.778Z,102512.94
2023-02-06T16:47:14.283Z,102519.63
2023-02-06T16:49:41.957Z,102530.00
2023-02-06T16:52:15.946Z,102541.50
2023-02-06T16:54:46.095Z,102531.88
2023-02-06T16:57:20.946Z,102537.81
2023-02-06T16:59:49.169Z,102540.84
2023-02-06T17:02:17.072Z,102541.97
2023-02-06T17:04:44.653Z,102540.56
2023-02-06T17:07:17.672Z,102550.00
2023-02-06T17:09:48.064Z,102547.69
2023-02-06T17:12:17.408Z,102565.84
2023-02-06T17:14:45.655Z,102566.06
2023-02-06T17:17:14.790Z,102569.69
2023-02-06T17:19:42.948Z,102580.91
2023-02-06T17:22:11.588Z,102577.41
2023-02-06T17:24:40.109Z,102579.88
2023-02-06T17:27:14.050Z,102591.38
2023-02-06T17:29:41.864Z,102579.50
2023-02-06T17:32:09.472Z,102578.69
2023-02-06T17:34:37.455Z,102584.84
2023-02-06T17:37:05.602Z,102587.13
2023-02-06T17:39:33.607Z,102583.56
2023-02-06T17:42:01.339Z,102580.13
2023-02-06T17:44:30.603Z,102583.88
2023-02-06T17:46:58.067Z,102581.34
2023-02-06T17:49:26.154Z,102581.41
2023-02-06T17:51:53.636Z,102581.78
2023-02-06T17:54:21.375Z,102588.66
2023-02-06T17:56:48.813Z,102587.63
2023-02-06T17:59:16.769Z,102583.72
2023-02-06T18:01:45.614Z,102595.34
2023-02-06T18:04:14.109Z,102592.63
2023-02-06T18:06:41.534Z,102584.72
2023-02-06T18:09:09.285Z,102580.25
2023-02-06T18:11:36.861Z,102577.31
2023-02-06T18:14:05.186Z,102573.28
2023-02-06T18:16:33.744Z,102576.78
2023-02-06T18:19:03.071Z,102572.38
2023-02-06T18:21:30.718Z,102561.38
2023-02-06T18:23:59.062Z,102560.09
2023-02-06T18:26:27.902Z,102561.25
2023-02-06T18:28:55.772Z,102557.75
2023-02-06T18:31:25.984Z,102564.88
2023-02-06T18:33:55.198Z,102560.47
2023-02-06T18:36:25.299Z,102560.69
2023-02-06T18:38:54.442Z,102569.88
2023-02-06T18:41:22.062Z,102568.06
2023-02-06T18:43:50.222Z,102562.91
2023-02-06T18:46:17.868Z,102567.19
2023-02-06T18:48:45.901Z,102570.31
2023-02-06T18:51:13.502Z,102578.16
2023-02-06T18:53:43.001Z,102578.19
2023-02-06T18:56:10.602Z,102588.16
2023-02-06T18:58:38.458Z,102576.09
2023-02-06T19:01:12.091Z,102568.09
2023-02-06T19:03:39.959Z,102565.28
2023-02-06T19:06:15.314Z,102567.03
2023-02-06T19:08:46.633Z,102567.56
2023-02-06T19:11:14.720Z,102579.66
2023-02-06T19:13:42.806Z,102590.56
2023-02-06T19:16:12.337Z,102587.34
2023-02-06T19:18:42.247Z,102588.19
2023-02-06T19:21:11.333Z,102572.31
2023-02-06T19:23:39.397Z,102574.97
2023-02-06T19:26:09.558Z,102578.16
2023-02-06T19:28:38.690Z,102577.44
2023-02-06T19:31:07.567Z,102585.81
2023-02-06T19:33:38.362Z,102588.28
2023-02-06T19:36:07.225Z,102577.72
2023-02-06T19:38:35.701Z,102593.34
2023-02-06T19:41:08.917Z,102613.59
2023-02-06T19:43:38.377Z,102615.22
2023-02-06T19:46:08.965Z,102615.28
2023-02-06T19:48:37.121Z,102616.25
2023-02-06T19:51:06.084Z,102616.28
2023-02-06T19:53:34.218Z,102619.66
2023-02-06T19:56:01.743Z,102629.31
2023-02-06T19:58:31.478Z,102643.28
2023-02-06T20:01:08.619Z,102647.91
2023-02-06T20:03:37.024Z,102639.56
2023-02-06T20:06:07.925Z,102640.50
2023-02-06T20:08:37.368Z,102650.88
2023-02-06T20:11:06.239Z,102655.28
2023-02-06T20:13:38.937Z,102642.13
2023-02-06T20:16:13.398Z,102655.34
2023-02-06T20:18:41.334Z,102671.25
2023-02-06T20:21:19.770Z,102677.31
2023-02-06T20:23:48.480Z,102681.78
2023-02-06T20:26:20.534Z,102688.78
2023-02-06T20:28:50.586Z,102694.97
2023-02-06T20:31:18.993Z,102690.53
2023-02-06T20:33:48.940Z,102687.03
2023-02-06T20:36:18.087Z,102694.94
2023-02-06T20:38:48.514Z,102702.81
2023-02-06T20:41:16.388Z,102695.88
2023-02-06T20:43:45.829Z,102693.53
2023-02-06T20:46:16.814Z,102697.19
2023-02-06T20:48:45.662Z,102702.44
2023-02-06T20:51:14.154Z,102708.50
2023-02-06T20:53:41.946Z,102719.75
2023-02-06T20:56:11.486Z,102705.78
2023-02-06T20:58:39.328Z,102698.78
2023-02-06T21:01:13.158Z,102700.59
2023-02-06T21:03:42.809Z,102699.81
2023-02-06T21:06:13.286Z,102706.69
2023-02-06T21:08:41.815Z,102698.06
2023-02-06T21:11:09.688Z,102703.41
2023-02-06T21:13:40.220Z,102699.09
2023-02-06T21:16:08.755Z,102693.22
2023-02-06T21:18:37.736Z,102684.63
2023-02-06T21:21:09.324Z,102691.63
2023-02-06T21:23:42.363Z,102690.03
2023-02-06T21:26:11.437Z,102689.09
2023-02-06T21:28:39.690Z,102696.03
2023-02-06T21:31:09.298Z,102688.09
2023-02-06T21:33:37.384Z,102694.81
2023-02-06T21:36:06.855Z,102681.09
2023-02-06T21:38:35.007Z,102675.84
2023-02-06T21:41:05.468Z,102679.44
2023-02-06T21:43:33.699Z,102671.72
2023-02-06T21:46:01.796Z,102671.06
2023-02-06T21:48:29.571Z,102682.28
2023-02-06T21:50:57.218Z,102685.00
2023-02-06T21:53:26.568Z,102680.84
2023-02-06T21:55:54.087Z,102686.94
2023-02-06T21:58:22.008Z,102665.94
2023-02-06T22:00:49.396Z,102674.59
2023-02-06T22:03:17.460Z,102676.25
2023-02-06T22:05:44.901Z,102674.47
2023-02-06T22:08:12.755Z,102681.59
2023-02-06T22:10:42.021Z,102692.16
2023-02-06T22:13:09.897Z,102694.00
2023-02-06T22:15:37.752Z,102693.97
2023-02-06T22:18:05.688Z,102697.44
2023-02-06T22:20:32.977Z,102701.91
2023-02-06T22:23:00.734Z,102686.22
2023-02-06T22:25:28.582Z,102688.00
2023-02-06T22:27:58.207Z,102684.50
2023-02-06T22:30:25.642Z,102691.63
2023-02-06T22:32:53.412Z,102680.16
2023-02-06T22:35:20.633Z,102679.25
2023-02-06T22:37:48.308Z,102681.09
2023-02-06T22:40:15.863Z,102673.19
2023-02-06T22:42:43.485Z,102677.59
2023-02-06T22:45:12.547Z,102675.97
2023-02-06T22:47:40.199Z,102676.69
2023-02-06T22:50:07.830Z,102682.81
2023-02-06T22:52:35.480Z,102682.88
2023-02-06T22:55:02.973Z,102693.28
2023-02-06T22:57:30.824Z,102696.75
2023-02-06T23:00:00.571Z,102702.06
2023-02-06T23:02:29.836Z,102693.28
2023-02-06T23:05:00.272Z,102693.28
2023-02-06T23:07:27.938Z,102691.53
2023-02-06T23:09:55.364Z,102706.31
2023-02-06T23:12:23.006Z,102709.00
2023-02-06T23:14:50.462Z,102712.53
2023-02-06T23:17:18.181Z,102709.84
2023-02-06T23:19:47.182Z,102720.28
2023-02-06T23:22:14.871Z,102726.34
2023-02-06T23:24:42.288Z,102735.16
2023-02-06T23:27:09.972Z,102732.53
2023-02-06T23:29:37.253Z,102734.28
2023-02-06T23:32:05.181Z,102731.69
2023-02-06T23:34:32.619Z,102726.50
2023-02-06T23:37:01.689Z,102731.81
2023-02-06T23:39:29.102Z,102734.38
2023-02-06T23:41:56.948Z,102735.38
2023-02-06T23:44:24.222Z,102731.91
2023-02-06T23:46:52.150Z,102723.16
2023-02-06T23:49:19.801Z,102714.44
2023-02-06T23:51:47.491Z,102726.56
2023-02-06T23:54:16.561Z,102729.91
2023-02-06T23:56:44.434Z,102730.84
2023-02-06T23:59:12.240Z,102727.44
